Little River, North Carolina
Current Conditions -  °F | °C
As of 11:53 PM on Wednesday 26 Nov 2014 (Local Time) from KHKY Reporting Station
Overcast Overcast  
Wind Chill: 42°   Ceiling: 2100
Heat Index: 42°   Visibility: 8mi
Dew Point: 40°   Wind: 3mph
Humidity: 92%   Direction: 20°NNE
Pressure: 29.99"   Gusts: NA
Location:  35.9243°N, 81.216°W
Report Text: KHKY 270453Z AUTO 02003KT 8SM SCT015 BKN021 OVC100 06/04 A2999 RMK AO2 SLP150 T00560044 401060050
Loading
Personal Weather Stations






























Interactive Weather Map New forecast layout! Learn more

10-Day Weather Forecast

Advertisements
Track Severe Weather on mobile